Taurus — DSQW7 — position and weather

sailwx.info

Track history (hours):
 
Tides and Currents Weather Stations Pressure Air Temp Water Temp Dewpoint Dewpoint Depression Visibility Wind Speed Wind Dir Waves Ship Positions

Taurus

Last reported at 2017-Oct-05 22:18 UTC. Time now 2017-Oct-18 11:14 UTC.
Position N 34°42' E 134°47'.
Warning: this ship's position is 12 days out of date.

Length 109 m; draft 4.6 m.

Type: Cargo ship. MMSI: 441737000.

Date/timePositionNaut miles runAvg speedWind from/ knotsBaromVisibWave heightAir tempDewpointWater temp
2017-Oct-05 22:18N 34°42' E 134°47'0 0.2
2017-Oct-05 20:17N 34°41' E 134°47'0 0.0
2017-Oct-05 18:59N 34°41' E 134°47'0 0.1
2017-Oct-05 18:05N 34°41' E 134°47'0 0.0
2017-Oct-05 17:47N 34°41' E 134°47'0 0.0
2017-Oct-05 17:17N 34°41' E 134°47'0 0.0
2017-Oct-05 16:59N 34°41' E 134°47'0 0.0
2017-Oct-05 12:11N 34°41' E 134°47'0 0.0
2017-Oct-05 11:47N 34°41' E 134°47'0 0.0
2017-Oct-05 11:29N 34°41' E 134°47'0 0.0
2017-Oct-05 10:59N 34°41' E 134°47'0 0.0
2017-Oct-04 23:29N 34°41' E 134°47'0 0.0
2017-Oct-04 22:59N 34°41' E 134°47'0 0.0
2017-Oct-04 22:29N 34°41' E 134°47'0 0.0
2017-Oct-04 21:59N 34°41' E 134°47'0 0.0
2017-Oct-04 21:17N 34°41' E 134°47'0 0.0
2017-Oct-04 20:59N 34°41' E 134°47'0 0.0
2017-Oct-04 20:05N 34°41' E 134°47'0 0.1
2017-Oct-04 18:41N 34°41' E 134°47'0 0.0
2017-Oct-04 18:23N 34°41' E 134°47'0 0.0
2017-Oct-04 17:11N 34°41' E 134°47'0 0.0
2017-Oct-04 16:59N 34°41' E 134°47'0 0.0
2017-Oct-04 16:29N 34°41' E 134°47'0 0.0
2017-Oct-04 15:53N 34°41' E 134°47'0 0.0
2017-Oct-04 15:29N 34°41' E 134°47'0 0.0
2017-Oct-04 14:59N 34°41' E 134°47'0 0.0
2017-Oct-04 13:41N 34°41' E 134°47'0 0.1
2017-Oct-04 13:17N 34°41' E 134°47'0 0.9
2017-Oct-04 13:00N 34°41' E 134°47'  
2017-Sep-29 03:37N 34°56' E 139°27'2 8.9
2017-Sep-29 03:25N 34°57' E 139°29'4 8.3
2017-Sep-29 02:57N 34°59' E 139°32'4 8.3
2017-Sep-29 02:30N 35°02' E 139°36'5 9.3
2017-Sep-29 02:00N 35°04' E 139°41'5 9.8
2017-Sep-29 01:30N 35°08' E 139°44'510.2
2017-Sep-29 01:00N 35°13' E 139°46'5 9.7
2017-Sep-29 00:30N 35°18' E 139°44'5 9.7
2017-Sep-29 00:00N 35°22' E 139°42'4 8.5
2017-Sep-28 23:30N 35°25' E 139°46'4 8.5
2017-Sep-28 23:00N 35°22' E 139°50'1 2.6
2017-Sep-28 22:30N 35°22' E 139°51'0 0.0
2017-Sep-28 22:00N 35°22' E 139°51'0 0.0
2017-Sep-28 21:31N 35°22' E 139°51'0 0.0
2017-Sep-28 21:01N 35°22' E 139°51'0 0.0
2017-Sep-28 20:27N 35°22' E 139°51'0 0.0
2017-Sep-28 20:00N 35°22' E 139°51'0 0.0
2017-Sep-28 19:12N 35°22' E 139°51'0 0.0
2017-Sep-28 19:00N 35°22' E 139°51'0 0.0
2017-Sep-28 18:30N 35°22' E 139°51'0 0.0
2017-Sep-28 17:54N 35°22' E 139°51'0 0.0
2017-Sep-28 17:31N 35°22' E 139°51'0 0.0
2017-Sep-28 17:00N 35°22' E 139°51'0 0.0
2017-Sep-28 16:31N 35°22' E 139°51'0 0.0
2017-Sep-28 16:00N 35°22' E 139°51'0 0.0
2017-Sep-28 15:30N 35°22' E 139°51'0 0.0
2017-Sep-28 15:00N 35°22' E 139°51'0 0.0
2017-Sep-28 14:30N 35°22' E 139°51'0 0.0
2017-Sep-28 13:43N 35°22' E 139°51'0 0.0
2017-Sep-28 13:31N 35°22' E 139°51'0 0.0
2017-Sep-28 12:58N 35°22' E 139°51'0 0.0
2017-Sep-28 12:30N 35°22' E 139°51'0 0.0
2017-Sep-28 11:16N 35°22' E 139°51'0 0.0
2017-Sep-28 10:51N 35°22' E 139°51'0 0.0
2017-Sep-28 09:03N 35°22' E 139°51'0 0.0
2017-Sep-28 08:58N 35°22' E 139°51'0 0.0
2017-Sep-28 08:27N 35°22' E 139°51'0 0.0
2017-Sep-28 07:52N 35°22' E 139°51'0 0.0
2017-Sep-28 07:27N 35°22' E 139°51'0 0.0
2017-Sep-28 06:57N 35°22' E 139°51'0 0.0
2017-Sep-28 06:31N 35°22' E 139°51'0 0.0
2017-Sep-28 06:00N 35°22' E 139°51'0 0.0
2017-Sep-28 05:30N 35°22' E 139°51'0 0.0
2017-Sep-28 05:01N 35°22' E 139°51'0 0.0
2017-Sep-28 04:31N 35°22' E 139°51'0 0.0
2017-Sep-28 03:58N 35°22' E 139°51'0 0.0
2017-Sep-28 03:31N 35°22' E 139°51'0 0.0
2017-Sep-28 02:58N 35°22' E 139°51'0 0.0
2017-Sep-28 02:30N 35°22' E 139°51'0 0.0
2017-Sep-28 02:00N 35°22' E 139°51'0 0.0
2017-Sep-28 01:31N 35°22' E 139°51'0 0.0
2017-Sep-28 00:42N 35°22' E 139°51'0 0.0
2017-Sep-28 00:24N 35°22' E 139°51'0 0.0
2017-Sep-27 23:54N 35°22' E 139°51'0 0.0
2017-Sep-27 22:42N 35°22' E 139°51'0 0.0
2017-Sep-27 22:21N 35°22' E 139°51'0 0.0
2017-Sep-27 22:01N 35°22' E 139°51'0 0.0
2017-Sep-27 21:09N 35°22' E 139°51'0 0.0
2017-Sep-27 20:46N 35°22' E 139°51'0 0.0
2017-Sep-27 20:31N 35°22' E 139°51'0 0.0
2017-Sep-27 19:33N 35°22' E 139°51'0 0.0
2017-Sep-27 19:22N 35°22' E 139°51'0 0.0
2017-Sep-27 18:51N 35°22' E 139°51'0 0.0
2017-Sep-27 18:31N 35°22' E 139°51'0 0.0
2017-Sep-27 17:45N 35°22' E 139°51'0 0.0
2017-Sep-27 17:22N 35°22' E 139°51'0 0.0
2017-Sep-27 16:57N 35°22' E 139°51'0 0.0
2017-Sep-27 16:30N 35°22' E 139°51'0 0.0
2017-Sep-27 15:57N 35°22' E 139°51'0 0.0
2017-Sep-27 15:29N 35°22' E 139°51'0 0.0
2017-Sep-27 15:01N 35°22' E 139°51'0 0.0
2017-Sep-27 14:31N 35°22' E 139°51'0 0.0
2017-Sep-27 14:00N 35°22' E 139°51'0 0.0
2017-Sep-27 13:31N 35°22' E 139°51'0 0.0
2017-Sep-27 12:54N 35°22' E 139°51'0 0.0
2017-Sep-27 12:31N 35°22' E 139°51'0 0.0
2017-Sep-27 11:57N 35°22' E 139°51'0 0.0
2017-Sep-27 11:27N 35°22' E 139°51'0 0.0
2017-Sep-27 10:51N 35°22' E 139°51'0 0.0
2017-Sep-27 10:31N 35°22' E 139°51'0 0.0
2017-Sep-27 09:55N 35°22' E 139°51'0 0.0
2017-Sep-27 09:27N 35°22' E 139°51'0 0.0
2017-Sep-27 08:54N 35°22' E 139°51'0 0.0
2017-Sep-27 08:27N 35°22' E 139°51'0 0.0
2017-Sep-27 06:57N 35°22' E 139°51'0 0.0
2017-Sep-27 06:21N 35°22' E 139°51'0 0.0
2017-Sep-27 05:57N 35°22' E 139°51'0 0.0
2017-Sep-27 05:28N 35°22' E 139°51'1 2.3
2017-Sep-27 05:01N 35°22' E 139°50'2 4.0
2017-Sep-27 04:30N 35°24' E 139°50'0 0.2
2017-Sep-27 03:58N 35°24' E 139°50'0 0.0
2017-Sep-27 03:28N 35°24' E 139°50'0 0.0
2017-Sep-27 02:58N 35°24' E 139°50'0 0.1
2017-Sep-27 02:07N 35°24' E 139°50'0 0.0
2017-Sep-27 01:49N 35°24' E 139°50'0 0.0
2017-Sep-27 01:16N 35°24' E 139°50'0 0.0
2017-Sep-27 00:55N 35°24' E 139°50'0 0.0
2017-Sep-27 00:28N 35°24' E 139°50'0 0.0
2017-Sep-26 23:55N 35°24' E 139°50'0 0.0
2017-Sep-26 23:28N 35°24' E 139°50'0 0.0
2017-Sep-26 22:52N 35°24' E 139°50'0 0.0
2017-Sep-26 22:28N 35°24' E 139°50'0 0.0
2017-Sep-26 21:58N 35°24' E 139°50'0 0.0
2017-Sep-26 21:28N 35°24' E 139°50'0 0.0
2017-Sep-26 20:58N 35°24' E 139°50'0 0.1
2017-Sep-26 20:28N 35°24' E 139°50'0 0.0
2017-Sep-26 19:58N 35°24' E 139°50'0 0.0
2017-Sep-26 19:28N 35°24' E 139°50'0 0.0
2017-Sep-26 18:55N 35°24' E 139°50'0 0.1
2017-Sep-26 18:28N 35°24' E 139°50'0 0.1
2017-Sep-26 17:58N 35°24' E 139°50'0 0.1
2017-Sep-26 16:55N 35°24' E 139°50'0 0.0
2017-Sep-26 16:28N 35°24' E 139°50'0 0.0
2017-Sep-26 15:52N 35°24' E 139°50'0 0.0
2017-Sep-26 13:37N 35°24' E 139°50'0 0.0
2017-Sep-26 13:28N 35°24' E 139°50'0 0.0
2017-Sep-26 12:52N 35°24' E 139°50'0 0.0
2017-Sep-26 12:28N 35°24' E 139°50'0 0.0
2017-Sep-26 11:58N 35°24' E 139°50'0 0.0
2017-Sep-26 11:28N 35°24' E 139°50'0 0.0
2017-Sep-26 10:56N 35°24' E 139°50'2 3.7
2017-Sep-26 10:30N 35°25' E 139°49'5 9.5
2017-Sep-26 10:00N 35°29' E 139°45'1 1.3
2017-Sep-26 09:30N 35°30' E 139°46'0 0.2
2017-Sep-26 09:00N 35°30' E 139°46'0 0.0
2017-Sep-26 08:29N 35°30' E 139°46'0 0.0
2017-Sep-26 07:59N 35°30' E 139°46'0 0.0
2017-Sep-26 07:30N 35°30' E 139°46'0 0.0
2017-Sep-26 06:59N 35°30' E 139°46'0 0.0
2017-Sep-26 06:29N 35°30' E 139°46'0 0.0
2017-Sep-26 05:59N 35°30' E 139°46'0 0.0
2017-Sep-26 05:29N 35°30' E 139°46'0 0.0
2017-Sep-26 05:00N 35°30' E 139°46'0 0.0
2017-Sep-26 04:29N 35°30' E 139°46'0 0.0
2017-Sep-26 04:00N 35°30' E 139°46'0 0.0
2017-Sep-26 03:29N 35°30' E 139°46'0 0.0
2017-Sep-26 02:59N 35°30' E 139°46'0 0.0
2017-Sep-26 02:26N 35°30' E 139°46'0 0.0
2017-Sep-26 01:59N 35°30' E 139°46'0 0.0
2017-Sep-26 01:30N 35°30' E 139°46'0 0.0
2017-Sep-26 00:59N 35°30' E 139°46'0 0.0
2017-Sep-26 00:29N 35°30' E 139°46'0 0.0
2017-Sep-25 23:59N 35°30' E 139°46'0 0.0
2017-Sep-25 23:29N 35°30' E 139°46'0 0.0
2017-Sep-25 22:59N 35°30' E 139°46'0 0.0
2017-Sep-25 22:29N 35°30' E 139°46'  
Track history (hours):
 
Tides and Currents Weather Stations Pressure Air Temp Water Temp Dewpoint Dewpoint Depression Visibility Wind Speed Wind Dir Waves Ship Positions

Taurus

Last reported at 2017-Oct-05 22:18 UTC. Time now 2017-Oct-18 11:14 UTC.
Position N 34°42' E 134°47'.
Warning: this ship's position is 12 days out of date.

Length 109 m; draft 4.6 m.

Type: Cargo ship. MMSI: 441737000.

Date/timePositionNaut miles runAvg speedWind from/ knotsBaromVisibWave heightAir tempDewpointWater temp
2017-Oct-05 22:18N 34°42' E 134°47'0 0.2
2017-Oct-05 20:17N 34°41' E 134°47'0 0.0
2017-Oct-05 18:59N 34°41' E 134°47'0 0.1
2017-Oct-05 18:05N 34°41' E 134°47'0 0.0
2017-Oct-05 17:47N 34°41' E 134°47'0 0.0
2017-Oct-05 17:17N 34°41' E 134°47'0 0.0
2017-Oct-05 16:59N 34°41' E 134°47'0 0.0
2017-Oct-05 12:11N 34°41' E 134°47'0 0.0
2017-Oct-05 11:47N 34°41' E 134°47'0 0.0
2017-Oct-05 11:29N 34°41' E 134°47'0 0.0
2017-Oct-05 10:59N 34°41' E 134°47'0 0.0
2017-Oct-04 23:29N 34°41' E 134°47'0 0.0
2017-Oct-04 22:59N 34°41' E 134°47'0 0.0
2017-Oct-04 22:29N 34°41' E 134°47'0 0.0
2017-Oct-04 21:59N 34°41' E 134°47'0 0.0
2017-Oct-04 21:17N 34°41' E 134°47'0 0.0
2017-Oct-04 20:59N 34°41' E 134°47'0 0.0
2017-Oct-04 20:05N 34°41' E 134°47'0 0.1
2017-Oct-04 18:41N 34°41' E 134°47'0 0.0
2017-Oct-04 18:23N 34°41' E 134°47'0 0.0
2017-Oct-04 17:11N 34°41' E 134°47'0 0.0
2017-Oct-04 16:59N 34°41' E 134°47'0 0.0
2017-Oct-04 16:29N 34°41' E 134°47'0 0.0
2017-Oct-04 15:53N 34°41' E 134°47'0 0.0
2017-Oct-04 15:29N 34°41' E 134°47'0 0.0
2017-Oct-04 14:59N 34°41' E 134°47'0 0.0
2017-Oct-04 13:41N 34°41' E 134°47'0 0.1
2017-Oct-04 13:17N 34°41' E 134°47'0 0.9
2017-Oct-04 13:00N 34°41' E 134°47'  
2017-Sep-29 03:37N 34°56' E 139°27'2 8.9
2017-Sep-29 03:25N 34°57' E 139°29'4 8.3
2017-Sep-29 02:57N 34°59' E 139°32'4 8.3
2017-Sep-29 02:30N 35°02' E 139°36'5 9.3
2017-Sep-29 02:00N 35°04' E 139°41'5 9.8
2017-Sep-29 01:30N 35°08' E 139°44'510.2
2017-Sep-29 01:00N 35°13' E 139°46'5 9.7
2017-Sep-29 00:30N 35°18' E 139°44'5 9.7
2017-Sep-29 00:00N 35°22' E 139°42'4 8.5
2017-Sep-28 23:30N 35°25' E 139°46'4 8.5
2017-Sep-28 23:00N 35°22' E 139°50'1 2.6
2017-Sep-28 22:30N 35°22' E 139°51'0 0.0
2017-Sep-28 22:00N 35°22' E 139°51'0 0.0
2017-Sep-28 21:31N 35°22' E 139°51'0 0.0
2017-Sep-28 21:01N 35°22' E 139°51'0 0.0
2017-Sep-28 20:27N 35°22' E 139°51'0 0.0
2017-Sep-28 20:00N 35°22' E 139°51'0 0.0
2017-Sep-28 19:12N 35°22' E 139°51'0 0.0
2017-Sep-28 19:00N 35°22' E 139°51'0 0.0
2017-Sep-28 18:30N 35°22' E 139°51'0 0.0
2017-Sep-28 17:54N 35°22' E 139°51'0 0.0
2017-Sep-28 17:31N 35°22' E 139°51'0 0.0
2017-Sep-28 17:00N 35°22' E 139°51'0 0.0
2017-Sep-28 16:31N 35°22' E 139°51'0 0.0
2017-Sep-28 16:00N 35°22' E 139°51'0 0.0
2017-Sep-28 15:30N 35°22' E 139°51'0 0.0
2017-Sep-28 15:00N 35°22' E 139°51'0 0.0
2017-Sep-28 14:30N 35°22' E 139°51'0 0.0
2017-Sep-28 13:43N 35°22' E 139°51'0 0.0
2017-Sep-28 13:31N 35°22' E 139°51'0 0.0
2017-Sep-28 12:58N 35°22' E 139°51'0 0.0
2017-Sep-28 12:30N 35°22' E 139°51'0 0.0
2017-Sep-28 11:16N 35°22' E 139°51'0 0.0
2017-Sep-28 10:51N 35°22' E 139°51'0 0.0
2017-Sep-28 09:03N 35°22' E 139°51'0 0.0
2017-Sep-28 08:58N 35°22' E 139°51'0 0.0
2017-Sep-28 08:27N 35°22' E 139°51'0 0.0
2017-Sep-28 07:52N 35°22' E 139°51'0 0.0
2017-Sep-28 07:27N 35°22' E 139°51'0 0.0
2017-Sep-28 06:57N 35°22' E 139°51'0 0.0
2017-Sep-28 06:31N 35°22' E 139°51'0 0.0
2017-Sep-28 06:00N 35°22' E 139°51'0 0.0
2017-Sep-28 05:30N 35°22' E 139°51'0 0.0
2017-Sep-28 05:01N 35°22' E 139°51'0 0.0
2017-Sep-28 04:31N 35°22' E 139°51'0 0.0
2017-Sep-28 03:58N 35°22' E 139°51'0 0.0
2017-Sep-28 03:31N 35°22' E 139°51'0 0.0
2017-Sep-28 02:58N 35°22' E 139°51'0 0.0
2017-Sep-28 02:30N 35°22' E 139°51'0 0.0
2017-Sep-28 02:00N 35°22' E 139°51'0 0.0
2017-Sep-28 01:31N 35°22' E 139°51'0 0.0
2017-Sep-28 00:42N 35°22' E 139°51'0 0.0
2017-Sep-28 00:24N 35°22' E 139°51'0 0.0
2017-Sep-27 23:54N 35°22' E 139°51'0 0.0
2017-Sep-27 22:42N 35°22' E 139°51'0 0.0
2017-Sep-27 22:21N 35°22' E 139°51'0 0.0
2017-Sep-27 22:01N 35°22' E 139°51'0 0.0
2017-Sep-27 21:09N 35°22' E 139°51'0 0.0
2017-Sep-27 20:46N 35°22' E 139°51'0 0.0
2017-Sep-27 20:31N 35°22' E 139°51'0 0.0
2017-Sep-27 19:33N 35°22' E 139°51'0 0.0
2017-Sep-27 19:22N 35°22' E 139°51'0 0.0
2017-Sep-27 18:51N 35°22' E 139°51'0 0.0
2017-Sep-27 18:31N 35°22' E 139°51'0 0.0
2017-Sep-27 17:45N 35°22' E 139°51'0 0.0
2017-Sep-27 17:22N 35°22' E 139°51'0 0.0
2017-Sep-27 16:57N 35°22' E 139°51'0 0.0
2017-Sep-27 16:30N 35°22' E 139°51'0 0.0
2017-Sep-27 15:57N 35°22' E 139°51'0 0.0
2017-Sep-27 15:29N 35°22' E 139°51'0 0.0
2017-Sep-27 15:01N 35°22' E 139°51'0 0.0
2017-Sep-27 14:31N 35°22' E 139°51'0 0.0
2017-Sep-27 14:00N 35°22' E 139°51'0 0.0
2017-Sep-27 13:31N 35°22' E 139°51'0 0.0
2017-Sep-27 12:54N 35°22' E 139°51'0 0.0
2017-Sep-27 12:31N 35°22' E 139°51'0 0.0
2017-Sep-27 11:57N 35°22' E 139°51'0 0.0
2017-Sep-27 11:27N 35°22' E 139°51'0 0.0
2017-Sep-27 10:51N 35°22' E 139°51'0 0.0
2017-Sep-27 10:31N 35°22' E 139°51'0 0.0
2017-Sep-27 09:55N 35°22' E 139°51'0 0.0
2017-Sep-27 09:27N 35°22' E 139°51'0 0.0
2017-Sep-27 08:54N 35°22' E 139°51'0 0.0
2017-Sep-27 08:27N 35°22' E 139°51'0 0.0
2017-Sep-27 06:57N 35°22' E 139°51'0 0.0
2017-Sep-27 06:21N 35°22' E 139°51'0 0.0
2017-Sep-27 05:57N 35°22' E 139°51'0 0.0
2017-Sep-27 05:28N 35°22' E 139°51'1 2.3
2017-Sep-27 05:01N 35°22' E 139°50'2 4.0
2017-Sep-27 04:30N 35°24' E 139°50'0 0.2
2017-Sep-27 03:58N 35°24' E 139°50'0 0.0
2017-Sep-27 03:28N 35°24' E 139°50'0 0.0
2017-Sep-27 02:58N 35°24' E 139°50'0 0.1
2017-Sep-27 02:07N 35°24' E 139°50'0 0.0
2017-Sep-27 01:49N 35°24' E 139°50'0 0.0
2017-Sep-27 01:16N 35°24' E 139°50'0 0.0
2017-Sep-27 00:55N 35°24' E 139°50'0 0.0
2017-Sep-27 00:28N 35°24' E 139°50'0 0.0
2017-Sep-26 23:55N 35°24' E 139°50'0 0.0
2017-Sep-26 23:28N 35°24' E 139°50'0 0.0
2017-Sep-26 22:52N 35°24' E 139°50'0 0.0
2017-Sep-26 22:28N 35°24' E 139°50'0 0.0
2017-Sep-26 21:58N 35°24' E 139°50'0 0.0
2017-Sep-26 21:28N 35°24' E 139°50'0 0.0
2017-Sep-26 20:58N 35°24' E 139°50'0 0.1
2017-Sep-26 20:28N 35°24' E 139°50'0 0.0
2017-Sep-26 19:58N 35°24' E 139°50'0 0.0
2017-Sep-26 19:28N 35°24' E 139°50'0 0.0
2017-Sep-26 18:55N 35°24' E 139°50'0 0.1
2017-Sep-26 18:28N 35°24' E 139°50'0 0.1
2017-Sep-26 17:58N 35°24' E 139°50'0 0.1
2017-Sep-26 16:55N 35°24' E 139°50'0 0.0
2017-Sep-26 16:28N 35°24' E 139°50'0 0.0
2017-Sep-26 15:52N 35°24' E 139°50'0 0.0
2017-Sep-26 13:37N 35°24' E 139°50'0 0.0
2017-Sep-26 13:28N 35°24' E 139°50'0 0.0
2017-Sep-26 12:52N 35°24' E 139°50'0 0.0
2017-Sep-26 12:28N 35°24' E 139°50'0 0.0
2017-Sep-26 11:58N 35°24' E 139°50'0 0.0
2017-Sep-26 11:28N 35°24' E 139°50'0 0.0
2017-Sep-26 10:56N 35°24' E 139°50'2 3.7
2017-Sep-26 10:30N 35°25' E 139°49'5 9.5
2017-Sep-26 10:00N 35°29' E 139°45'1 1.3
2017-Sep-26 09:30N 35°30' E 139°46'0 0.2
2017-Sep-26 09:00N 35°30' E 139°46'0 0.0
2017-Sep-26 08:29N 35°30' E 139°46'0 0.0
2017-Sep-26 07:59N 35°30' E 139°46'0 0.0
2017-Sep-26 07:30N 35°30' E 139°46'0 0.0
2017-Sep-26 06:59N 35°30' E 139°46'0 0.0
2017-Sep-26 06:29N 35°30' E 139°46'0 0.0
2017-Sep-26 05:59N 35°30' E 139°46'0 0.0
2017-Sep-26 05:29N 35°30' E 139°46'0 0.0
2017-Sep-26 05:00N 35°30' E 139°46'0 0.0
2017-Sep-26 04:29N 35°30' E 139°46'0 0.0
2017-Sep-26 04:00N 35°30' E 139°46'0 0.0
2017-Sep-26 03:29N 35°30' E 139°46'0 0.0
2017-Sep-26 02:59N 35°30' E 139°46'0 0.0
2017-Sep-26 02:26N 35°30' E 139°46'0 0.0
2017-Sep-26 01:59N 35°30' E 139°46'0 0.0
2017-Sep-26 01:30N 35°30' E 139°46'0 0.0
2017-Sep-26 00:59N 35°30' E 139°46'0 0.0
2017-Sep-26 00:29N 35°30' E 139°46'0 0.0
2017-Sep-25 23:59N 35°30' E 139°46'0 0.0
2017-Sep-25 23:29N 35°30' E 139°46'0 0.0
2017-Sep-25 22:59N 35°30' E 139°46'0 0.0
2017-Sep-25 22:29N 35°30' E 139°46'  

Dump ship's entire track history